sensor_id;sensor_type;location;lat;lon;timestamp;temperature;humidity
506;DHT22;551;48.524;9.056;2023-03-13T00:01:22;8.00;1.00
506;DHT22;551;48.524;9.056;2023-03-13T00:03:49;8.00;1.00
506;DHT22;551;48.524;9.056;2023-03-13T00:06:15;7.90;1.00
506;DHT22;551;48.524;9.056;2023-03-13T00:08:41;8.00;1.00
506;DHT22;551;48.524;9.056;2023-03-13T00:11:09;8.00;1.00
506;DHT22;551;48.524;9.056;2023-03-13T00:13:35;8.00;1.00
506;DHT22;551;48.524;9.056;2023-03-13T00:16:05;8.10;1.00
506;DHT22;551;48.524;9.056;2023-03-13T00:18:31;8.10;1.00
506;DHT22;551;48.524;9.056;2023-03-13T00:21:01;8.00;1.00
506;DHT22;551;48.524;9.056;2023-03-13T00:23:28;8.00;1.00
506;DHT22;551;48.524;9.056;2023-03-13T00:26:01;7.90;1.00
506;DHT22;551;48.524;9.056;2023-03-13T00:28:29;7.80;1.00
506;DHT22;551;48.524;9.056;2023-03-13T00:31:09;7.80;1.00
506;DHT22;551;48.524;9.056;2023-03-13T00:33:36;7.70;1.00
506;DHT22;551;48.524;9.056;2023-03-13T00:36:08;7.70;1.00
506;DHT22;551;48.524;9.056;2023-03-13T00:38:34;7.70;1.00
506;DHT22;551;48.524;9.056;2023-03-13T00:41:10;7.70;1.00
506;DHT22;551;48.524;9.056;2023-03-13T00:43:37;7.70;1.00
506;DHT22;551;48.524;9.056;2023-03-13T00:46:03;7.80;1.00
506;DHT22;551;48.524;9.056;2023-03-13T00:48:29;7.80;1.00
506;DHT22;551;48.524;9.056;2023-03-13T00:50:54;7.80;1.00
506;DHT22;551;48.524;9.056;2023-03-13T00:53:20;7.80;1.00
506;DHT22;551;48.524;9.056;2023-03-13T00:55:54;7.80;1.00
506;DHT22;551;48.524;9.056;2023-03-13T00:58:20;7.80;1.00
506;DHT22;551;48.524;9.056;2023-03-13T01:00:45;7.80;1.00
506;DHT22;551;48.524;9.056;2023-03-13T01:03:11;7.80;1.00
506;DHT22;551;48.524;9.056;2023-03-13T01:05:36;7.80;1.00
506;DHT22;551;48.524;9.056;2023-03-13T01:08:02;7.80;1.00
506;DHT22;551;48.524;9.056;2023-03-13T01:10:28;7.80;1.00
506;DHT22;551;48.524;9.056;2023-03-13T01:12:53;7.80;1.00
506;DHT22;551;48.524;9.056;2023-03-13T01:15:19;7.80;1.00
506;DHT22;551;48.524;9.056;2023-03-13T01:17:45;7.80;1.00
506;DHT22;551;48.524;9.056;2023-03-13T01:20:11;7.90;1.00
506;DHT22;551;48.524;9.056;2023-03-13T01:22:37;7.90;1.00
506;DHT22;551;48.524;9.056;2023-03-13T01:25:03;7.90;1.00
506;DHT22;551;48.524;9.056;2023-03-13T01:27:29;7.90;1.00
506;DHT22;551;48.524;9.056;2023-03-13T01:29:54;7.80;1.00
506;DHT22;551;48.524;9.056;2023-03-13T01:32:20;7.80;1.00
506;DHT22;551;48.524;9.056;2023-03-13T01:34:46;7.80;1.00
506;DHT22;551;48.524;9.056;2023-03-13T01:37:11;7.80;1.00
506;DHT22;551;48.524;9.056;2023-03-13T01:39:37;7.80;1.00
506;DHT22;551;48.524;9.056;2023-03-13T01:42:03;7.80;1.00
506;DHT22;551;48.524;9.056;2023-03-13T01:44:46;7.80;1.00
506;DHT22;551;48.524;9.056;2023-03-13T01:47:12;7.80;1.00
506;DHT22;551;48.524;9.056;2023-03-13T01:49:38;7.80;1.00
506;DHT22;551;48.524;9.056;2023-03-13T01:52:10;7.80;1.00
506;DHT22;551;48.524;9.056;2023-03-13T01:57:19;7.80;1.00
506;DHT22;551;48.524;9.056;2023-03-13T02:00:14;7.80;1.00
506;DHT22;551;48.524;9.056;2023-03-13T02:02:50;7.80;1.00
506;DHT22;551;48.524;9.056;2023-03-13T02:05:18;7.90;1.00
506;DHT22;551;48.524;9.056;2023-03-13T02:07:49;7.90;1.00
506;DHT22;551;48.524;9.056;2023-03-13T02:10:16;8.00;1.00
506;DHT22;551;48.524;9.056;2023-03-13T02:12:42;8.00;1.00
506;DHT22;551;48.524;9.056;2023-03-13T02:15:17;8.00;1.00
506;DHT22;551;48.524;9.056;2023-03-13T02:17:44;8.10;1.00
506;DHT22;551;48.524;9.056;2023-03-13T02:20:11;8.10;1.00
506;DHT22;551;48.524;9.056;2023-03-13T02:25:48;8.20;1.00
506;DHT22;551;48.524;9.056;2023-03-13T02:28:16;8.20;1.00
506;DHT22;551;48.524;9.056;2023-03-13T02:30:43;8.20;1.00
506;DHT22;551;48.524;9.056;2023-03-13T02:33:11;8.20;1.00
506;DHT22;551;48.524;9.056;2023-03-13T02:35:38;8.20;1.00
506;DHT22;551;48.524;9.056;2023-03-13T02:38:06;8.20;1.00
506;DHT22;551;48.524;9.056;2023-03-13T02:40:39;8.30;1.00
506;DHT22;551;48.524;9.056;2023-03-13T02:43:10;8.30;1.00
506;DHT22;551;48.524;9.056;2023-03-13T02:45:36;8.30;1.00
506;DHT22;551;48.524;9.056;2023-03-13T02:48:02;8.30;1.00
506;DHT22;551;48.524;9.056;2023-03-13T02:50:28;8.30;1.00
506;DHT22;551;48.524;9.056;2023-03-13T02:52:57;8.30;1.00
506;DHT22;551;48.524;9.056;2023-03-13T02:55:28;8.40;1.00
506;DHT22;551;48.524;9.056;2023-03-13T02:57:54;8.40;1.00
506;DHT22;551;48.524;9.056;2023-03-13T03:00:20;8.40;1.00
506;DHT22;551;48.524;9.056;2023-03-13T03:02:50;8.50;1.00
506;DHT22;551;48.524;9.056;2023-03-13T03:05:16;8.50;1.00
506;DHT22;551;48.524;9.056;2023-03-13T03:07:42;8.60;1.00
506;DHT22;551;48.524;9.056;2023-03-13T03:10:08;8.60;1.00
506;DHT22;551;48.524;9.056;2023-03-13T03:12:33;8.60;1.00
506;DHT22;551;48.524;9.056;2023-03-13T03:14:59;8.60;1.00
506;DHT22;551;48.524;9.056;2023-03-13T03:17:24;8.60;1.00
506;DHT22;551;48.524;9.056;2023-03-13T03:19:50;8.60;1.00
506;DHT22;551;48.524;9.056;2023-03-13T03:22:15;8.60;1.00
506;DHT22;551;48.524;9.056;2023-03-13T03:24:41;8.60;1.00
506;DHT22;551;48.524;9.056;2023-03-13T03:27:06;8.70;1.00
506;DHT22;551;48.524;9.056;2023-03-13T03:29:32;8.70;1.00
506;DHT22;551;48.524;9.056;2023-03-13T03:31:57;8.80;1.00
506;DHT22;551;48.524;9.056;2023-03-13T03:34:23;8.90;1.00
506;DHT22;551;48.524;9.056;2023-03-13T03:36:48;9.00;1.00
506;DHT22;551;48.524;9.056;2023-03-13T03:39:14;9.10;1.00
506;DHT22;551;48.524;9.056;2023-03-13T03:41:39;9.10;1.00
506;DHT22;551;48.524;9.056;2023-03-13T03:44:05;9.10;1.00
506;DHT22;551;48.524;9.056;2023-03-13T03:46:31;9.10;1.00
506;DHT22;551;48.524;9.056;2023-03-13T03:48:56;9.30;1.00
506;DHT22;551;48.524;9.056;2023-03-13T03:51:22;9.40;1.00
506;DHT22;551;48.524;9.056;2023-03-13T03:53:47;9.60;1.00
506;DHT22;551;48.524;9.056;2023-03-13T03:56:13;9.70;1.00
506;DHT22;551;48.524;9.056;2023-03-13T03:58:39;9.90;1.00
506;DHT22;551;48.524;9.056;2023-03-13T04:01:04;10.10;1.00
506;DHT22;551;48.524;9.056;2023-03-13T04:03:30;10.30;1.00
506;DHT22;551;48.524;9.056;2023-03-13T04:05:56;10.40;1.00
506;DHT22;551;48.524;9.056;2023-03-13T04:08:22;10.50;1.00
506;DHT22;551;48.524;9.056;2023-03-13T04:10:47;10.70;1.00
506;DHT22;551;48.524;9.056;2023-03-13T04:13:13;10.80;1.00
506;DHT22;551;48.524;9.056;2023-03-13T04:15:39;10.90;1.00
506;DHT22;551;48.524;9.056;2023-03-13T04:18:05;10.90;1.00
506;DHT22;551;48.524;9.056;2023-03-13T04:20:31;11.00;1.00
506;DHT22;551;48.524;9.056;2023-03-13T04:22:56;11.00;1.00
506;DHT22;551;48.524;9.056;2023-03-13T04:25:22;11.10;1.00
506;DHT22;551;48.524;9.056;2023-03-13T04:27:47;11.10;1.00
506;DHT22;551;48.524;9.056;2023-03-13T04:30:13;11.10;1.00
506;DHT22;551;48.524;9.056;2023-03-13T04:32:39;11.10;1.00
506;DHT22;551;48.524;9.056;2023-03-13T04:35:05;11.10;1.00
506;DHT22;551;48.524;9.056;2023-03-13T04:37:30;11.10;1.00
506;DHT22;551;48.524;9.056;2023-03-13T04:39:56;11.20;1.00
506;DHT22;551;48.524;9.056;2023-03-13T04:42:22;11.30;1.00
506;DHT22;551;48.524;9.056;2023-03-13T04:44:47;11.50;1.00
506;DHT22;551;48.524;9.056;2023-03-13T04:47:13;11.60;1.00
506;DHT22;551;48.524;9.056;2023-03-13T04:49:39;11.60;1.00
506;DHT22;551;48.524;9.056;2023-03-13T04:52:04;11.70;1.00
506;DHT22;551;48.524;9.056;2023-03-13T04:54:30;11.80;1.00
506;DHT22;551;48.524;9.056;2023-03-13T04:56:56;11.80;1.00
506;DHT22;551;48.524;9.056;2023-03-13T04:59:21;11.90;1.00
506;DHT22;551;48.524;9.056;2023-03-13T05:01:47;11.90;1.00
506;DHT22;551;48.524;9.056;2023-03-13T05:04:12;11.90;1.00
506;DHT22;551;48.524;9.056;2023-03-13T05:06:38;11.90;1.00
506;DHT22;551;48.524;9.056;2023-03-13T05:09:04;12.00;1.00
506;DHT22;551;48.524;9.056;2023-03-13T05:11:29;12.00;1.00
506;DHT22;551;48.524;9.056;2023-03-13T05:13:55;12.00;1.00
506;DHT22;551;48.524;9.056;2023-03-13T05:16:21;12.00;1.00
506;DHT22;551;48.524;9.056;2023-03-13T05:18:47;12.00;1.00
506;DHT22;551;48.524;9.056;2023-03-13T05:21:12;12.00;1.00
506;DHT22;551;48.524;9.056;2023-03-13T05:23:38;12.00;1.00
506;DHT22;551;48.524;9.056;2023-03-13T05:26:03;12.00;1.00
506;DHT22;551;48.524;9.056;2023-03-13T05:28:29;12.00;1.00
506;DHT22;551;48.524;9.056;2023-03-13T05:30:54;12.00;1.00
506;DHT22;551;48.524;9.056;2023-03-13T05:33:20;12.00;1.00
506;DHT22;551;48.524;9.056;2023-03-13T05:35:46;12.00;1.00
506;DHT22;551;48.524;9.056;2023-03-13T05:38:12;12.10;1.00
506;DHT22;551;48.524;9.056;2023-03-13T05:40:37;12.00;1.00
506;DHT22;551;48.524;9.056;2023-03-13T05:43:03;12.10;1.00
506;DHT22;551;48.524;9.056;2023-03-13T05:45:28;12.00;1.00
506;DHT22;551;48.524;9.056;2023-03-13T05:47:54;12.10;1.00
506;DHT22;551;48.524;9.056;2023-03-13T05:50:20;12.10;1.00
506;DHT22;551;48.524;9.056;2023-03-13T05:52:45;12.10;1.00
506;DHT22;551;48.524;9.056;2023-03-13T05:55:11;12.20;1.00
506;DHT22;551;48.524;9.056;2023-03-13T05:57:36;12.20;1.00
506;DHT22;551;48.524;9.056;2023-03-13T06:00:03;12.20;1.00
506;DHT22;551;48.524;9.056;2023-03-13T06:02:29;12.20;1.00
506;DHT22;551;48.524;9.056;2023-03-13T06:04:54;12.20;1.00
506;DHT22;551;48.524;9.056;2023-03-13T06:07:20;12.30;1.00
506;DHT22;551;48.524;9.056;2023-03-13T06:09:45;12.30;1.00
506;DHT22;551;48.524;9.056;2023-03-13T06:12:11;12.30;1.00
506;DHT22;551;48.524;9.056;2023-03-13T06:14:37;12.30;1.00
506;DHT22;551;48.524;9.056;2023-03-13T06:17:03;12.40;1.00
506;DHT22;551;48.524;9.056;2023-03-13T06:19:29;12.50;1.00
506;DHT22;551;48.524;9.056;2023-03-13T06:21:55;12.50;1.00
506;DHT22;551;48.524;9.056;2023-03-13T06:24:20;12.50;1.00
506;DHT22;551;48.524;9.056;2023-03-13T06:26:49;12.50;1.00
506;DHT22;551;48.524;9.056;2023-03-13T06:29:15;12.50;1.00
506;DHT22;551;48.524;9.056;2023-03-13T06:31:41;12.60;1.00
506;DHT22;551;48.524;9.056;2023-03-13T06:34:09;12.70;1.00
506;DHT22;551;48.524;9.056;2023-03-13T06:36:35;12.70;1.00
506;DHT22;551;48.524;9.056;2023-03-13T06:39:01;12.90;1.00
506;DHT22;551;48.524;9.056;2023-03-13T06:41:26;12.90;1.00
506;DHT22;551;48.524;9.056;2023-03-13T06:43:52;13.00;1.00
506;DHT22;551;48.524;9.056;2023-03-13T06:46:22;13.10;1.00
506;DHT22;551;48.524;9.056;2023-03-13T06:48:49;13.20;1.00
506;DHT22;551;48.524;9.056;2023-03-13T06:51:17;13.20;1.00
506;DHT22;551;48.524;9.056;2023-03-13T06:53:42;13.20;1.00
506;DHT22;551;48.524;9.056;2023-03-13T06:56:09;13.30;1.00
506;DHT22;551;48.524;9.056;2023-03-13T06:58:35;13.30;1.00
506;DHT22;551;48.524;9.056;2023-03-13T07:01:09;13.30;1.00
506;DHT22;551;48.524;9.056;2023-03-13T07:03:36;13.30;1.00
506;DHT22;551;48.524;9.056;2023-03-13T07:06:03;13.30;1.00
506;DHT22;551;48.524;9.056;2023-03-13T07:08:29;13.40;1.00
506;DHT22;551;48.524;9.056;2023-03-13T07:11:00;13.40;1.00
506;DHT22;551;48.524;9.056;2023-03-13T07:13:26;13.50;1.00
506;DHT22;551;48.524;9.056;2023-03-13T07:15:52;13.50;1.00
506;DHT22;551;48.524;9.056;2023-03-13T07:18:19;13.50;1.00
506;DHT22;551;48.524;9.056;2023-03-13T07:20:44;13.50;1.00
506;DHT22;551;48.524;9.056;2023-03-13T07:23:15;13.60;1.00
506;DHT22;551;48.524;9.056;2023-03-13T07:25:41;13.50;1.00
506;DHT22;551;48.524;9.056;2023-03-13T07:28:06;13.60;1.00
506;DHT22;551;48.524;9.056;2023-03-13T07:30:32;13.60;1.00
506;DHT22;551;48.524;9.056;2023-03-13T07:32:57;13.70;1.00
506;DHT22;551;48.524;9.056;2023-03-13T07:35:23;13.90;1.00
506;DHT22;551;48.524;9.056;2023-03-13T07:37:48;14.00;1.00
506;DHT22;551;48.524;9.056;2023-03-13T07:40:14;14.10;1.00
506;DHT22;551;48.524;9.056;2023-03-13T07:42:40;14.20;1.00
506;DHT22;551;48.524;9.056;2023-03-13T07:45:07;14.30;1.00
506;DHT22;551;48.524;9.056;2023-03-13T07:47:35;14.40;1.00
506;DHT22;551;48.524;9.056;2023-03-13T07:50:01;14.40;1.00
506;DHT22;551;48.524;9.056;2023-03-13T07:52:27;14.50;1.00
506;DHT22;551;48.524;9.056;2023-03-13T07:54:53;14.60;1.00
506;DHT22;551;48.524;9.056;2023-03-13T07:57:19;14.80;1.00
506;DHT22;551;48.524;9.056;2023-03-13T07:59:44;14.80;1.00
506;DHT22;551;48.524;9.056;2023-03-13T08:02:12;14.80;1.00
506;DHT22;551;48.524;9.056;2023-03-13T08:04:41;14.80;1.00
506;DHT22;551;48.524;9.056;2023-03-13T08:07:10;14.90;1.00
506;DHT22;551;48.524;9.056;2023-03-13T08:09:35;14.90;1.00
506;DHT22;551;48.524;9.056;2023-03-13T08:12:01;14.90;1.00
506;DHT22;551;48.524;9.056;2023-03-13T08:14:27;15.00;1.00
506;DHT22;551;48.524;9.056;2023-03-13T08:16:53;15.00;1.00
506;DHT22;551;48.524;9.056;2023-03-13T08:19:18;15.10;1.00
506;DHT22;551;48.524;9.056;2023-03-13T08:21:44;15.10;1.00
506;DHT22;551;48.524;9.056;2023-03-13T08:24:10;15.20;1.00
506;DHT22;551;48.524;9.056;2023-03-13T08:26:38;15.40;1.00
506;DHT22;551;48.524;9.056;2023-03-13T08:29:07;15.50;1.00
506;DHT22;551;48.524;9.056;2023-03-13T08:31:43;15.60;1.00
506;DHT22;551;48.524;9.056;2023-03-13T08:34:10;15.70;1.00
506;DHT22;551;48.524;9.056;2023-03-13T08:36:37;15.80;1.00
506;DHT22;551;48.524;9.056;2023-03-13T08:39:13;15.90;1.00
506;DHT22;551;48.524;9.056;2023-03-13T08:41:39;15.80;1.00
506;DHT22;551;48.524;9.056;2023-03-13T08:44:06;15.80;1.00
506;DHT22;551;48.524;9.056;2023-03-13T08:46:34;15.80;1.00
506;DHT22;551;48.524;9.056;2023-03-13T08:49:03;15.90;1.00
506;DHT22;551;48.524;9.056;2023-03-13T08:51:29;16.00;1.00
506;DHT22;551;48.524;9.056;2023-03-13T08:53:55;16.10;1.00
506;DHT22;551;48.524;9.056;2023-03-13T08:56:26;16.10;1.00
506;DHT22;551;48.524;9.056;2023-03-13T08:58:54;16.20;1.00
506;DHT22;551;48.524;9.056;2023-03-13T09:01:22;16.20;1.00
506;DHT22;551;48.524;9.056;2023-03-13T09:03:48;16.30;1.00
506;DHT22;551;48.524;9.056;2023-03-13T09:06:14;16.30;1.00
506;DHT22;551;48.524;9.056;2023-03-13T09:08:40;16.40;1.00
506;DHT22;551;48.524;9.056;2023-03-13T09:11:17;16.40;1.00
506;DHT22;551;48.524;9.056;2023-03-13T09:13:45;16.40;1.00
506;DHT22;551;48.524;9.056;2023-03-13T09:16:17;16.40;1.00
506;DHT22;551;48.524;9.056;2023-03-13T09:18:43;16.50;1.00
506;DHT22;551;48.524;9.056;2023-03-13T09:21:12;16.70;1.00
506;DHT22;551;48.524;9.056;2023-03-13T09:23:38;17.10;1.00
506;DHT22;551;48.524;9.056;2023-03-13T09:26:04;17.90;1.00
506;DHT22;551;48.524;9.056;2023-03-13T09:28:31;19.00;1.00
506;DHT22;551;48.524;9.056;2023-03-13T09:31:08;20.20;1.00
506;DHT22;551;48.524;9.056;2023-03-13T09:33:34;21.60;1.00
506;DHT22;551;48.524;9.056;2023-03-13T09:36:00;22.90;1.00
506;DHT22;551;48.524;9.056;2023-03-13T09:38:25;23.60;1.00
506;DHT22;551;48.524;9.056;2023-03-13T09:40:53;24.30;1.00
506;DHT22;551;48.524;9.056;2023-03-13T09:43:57;24.70;1.00
506;DHT22;551;48.524;9.056;2023-03-13T09:46:32;24.40;1.00
506;DHT22;551;48.524;9.056;2023-03-13T09:49:10;23.30;1.00
506;DHT22;551;48.524;9.056;2023-03-13T09:51:38;22.30;1.00
506;DHT22;551;48.524;9.056;2023-03-13T09:54:23;21.20;1.00
506;DHT22;551;48.524;9.056;2023-03-13T10:00:06;20.40;1.00
506;DHT22;551;48.524;9.056;2023-03-13T10:02:37;20.20;1.00
506;DHT22;551;48.524;9.056;2023-03-13T10:05:19;20.10;1.00
506;DHT22;551;48.524;9.056;2023-03-13T10:07:45;20.20;1.00
506;DHT22;551;48.524;9.056;2023-03-13T10:10:24;20.80;1.00
506;DHT22;551;48.524;9.056;2023-03-13T10:12:58;21.80;1.00
506;DHT22;551;48.524;9.056;2023-03-13T10:15:45;22.80;1.00
506;DHT22;551;48.524;9.056;2023-03-13T10:18:19;23.10;1.00
506;DHT22;551;48.524;9.056;2023-03-13T10:20:51;23.40;1.00
506;DHT22;551;48.524;9.056;2023-03-13T10:23:45;24.40;1.00
506;DHT22;551;48.524;9.056;2023-03-13T10:26:16;25.50;1.00
506;DHT22;551;48.524;9.056;2023-03-13T10:28:44;26.00;1.00
506;DHT22;551;48.524;9.056;2023-03-13T10:31:19;26.90;1.00
506;DHT22;551;48.524;9.056;2023-03-13T10:33:48;27.30;1.00
506;DHT22;551;48.524;9.056;2023-03-13T10:36:14;27.70;1.00
506;DHT22;551;48.524;9.056;2023-03-13T10:38:53;28.40;1.00
506;DHT22;551;48.524;9.056;2023-03-13T10:41:22;28.40;1.00
506;DHT22;551;48.524;9.056;2023-03-13T10:43:51;27.70;1.00
506;DHT22;551;48.524;9.056;2023-03-13T10:46:29;27.60;1.00
506;DHT22;551;48.524;9.056;2023-03-13T10:48:56;26.90;1.00
506;DHT22;551;48.524;9.056;2023-03-13T10:51:33;26.20;1.00
506;DHT22;551;48.524;9.056;2023-03-13T10:54:00;25.10;1.00
506;DHT22;551;48.524;9.056;2023-03-13T10:56:28;24.20;1.00
506;DHT22;551;48.524;9.056;2023-03-13T10:58:54;23.50;1.00
506;DHT22;551;48.524;9.056;2023-03-13T11:03:52;22.50;1.00
506;DHT22;551;48.524;9.056;2023-03-13T11:06:32;22.10;1.00
506;DHT22;551;48.524;9.056;2023-03-13T11:09:16;21.90;1.00
506;DHT22;551;48.524;9.056;2023-03-13T11:11:53;21.70;1.00
506;DHT22;551;48.524;9.056;2023-03-13T11:14:22;21.50;1.00
506;DHT22;551;48.524;9.056;2023-03-13T11:17:04;21.40;1.00
506;DHT22;551;48.524;9.056;2023-03-13T11:19:37;21.30;1.00
506;DHT22;551;48.524;9.056;2023-03-13T11:24:40;21.40;1.00
506;DHT22;551;48.524;9.056;2023-03-13T11:32:42;22.10;1.00
506;DHT22;551;48.524;9.056;2023-03-13T11:38:20;23.20;1.00
506;DHT22;551;48.524;9.056;2023-03-13T11:44:07;24.90;1.00
506;DHT22;551;48.524;9.056;2023-03-13T11:46:51;27.00;1.00
506;DHT22;551;48.524;9.056;2023-03-13T11:57:26;30.40;1.00
506;DHT22;551;48.524;9.056;2023-03-13T12:00:13;30.80;1.00
506;DHT22;551;48.524;9.056;2023-03-13T12:05:17;32.20;1.00
506;DHT22;551;48.524;9.056;2023-03-13T12:07:54;32.10;1.00
506;DHT22;551;48.524;9.056;2023-03-13T12:10:28;31.50;1.00
506;DHT22;551;48.524;9.056;2023-03-13T12:13:06;31.50;1.00
506;DHT22;551;48.524;9.056;2023-03-13T12:15:39;31.50;1.00
506;DHT22;551;48.524;9.056;2023-03-13T12:18:24;31.50;1.00
506;DHT22;551;48.524;9.056;2023-03-13T12:21:03;31.40;1.00
506;DHT22;551;48.524;9.056;2023-03-13T12:23:46;31.40;1.00
506;DHT22;551;48.524;9.056;2023-03-13T12:26:16;31.40;1.00
506;DHT22;551;48.524;9.056;2023-03-13T12:31:35;32.10;1.00
506;DHT22;551;48.524;9.056;2023-03-13T12:34:17;32.40;1.00
506;DHT22;551;48.524;9.056;2023-03-13T12:44:58;31.00;1.00
506;DHT22;551;48.524;9.056;2023-03-13T12:47:39;30.10;1.00
506;DHT22;551;48.524;9.056;2023-03-13T12:50:47;29.90;1.00
506;DHT22;551;48.524;9.056;2023-03-13T12:56:12;29.40;1.00
506;DHT22;551;48.524;9.056;2023-03-13T12:58:47;29.30;1.00
506;DHT22;551;48.524;9.056;2023-03-13T13:01:20;29.30;1.00
506;DHT22;551;48.524;9.056;2023-03-13T13:03:54;29.00;1.00
506;DHT22;551;48.524;9.056;2023-03-13T13:06:21;28.50;1.00
506;DHT22;551;48.524;9.056;2023-03-13T13:14:01;27.10;1.00
506;DHT22;551;48.524;9.056;2023-03-13T13:16:30;26.90;1.00
506;DHT22;551;48.524;9.056;2023-03-13T13:24:55;27.00;1.00
506;DHT22;551;48.524;9.056;2023-03-13T13:32:55;25.90;1.00
506;DHT22;551;48.524;9.056;2023-03-13T13:35:39;25.50;1.00
506;DHT22;551;48.524;9.056;2023-03-13T13:43:38;24.70;1.00
506;DHT22;551;48.524;9.056;2023-03-13T13:46:30;24.50;1.00
506;DHT22;551;48.524;9.056;2023-03-13T13:49:14;24.30;1.00
506;DHT22;551;48.524;9.056;2023-03-13T13:51:41;24.30;1.00
506;DHT22;551;48.524;9.056;2023-03-13T13:57:14;24.60;1.00
506;DHT22;551;48.524;9.056;2023-03-13T13:59:45;25.00;1.00
506;DHT22;551;48.524;9.056;2023-03-13T14:02:19;25.40;1.00
506;DHT22;551;48.524;9.056;2023-03-13T14:04:51;25.50;1.00
506;DHT22;551;48.524;9.056;2023-03-13T14:07:29;25.60;1.00
506;DHT22;551;48.524;9.056;2023-03-13T14:12:44;25.20;1.00
506;DHT22;551;48.524;9.056;2023-03-13T14:17:43;24.70;1.00
506;DHT22;551;48.524;9.056;2023-03-13T14:22:57;24.40;1.00
506;DHT22;551;48.524;9.056;2023-03-13T14:25:25;24.20;1.00
506;DHT22;551;48.524;9.056;2023-03-13T14:27:52;24.10;1.00
506;DHT22;551;48.524;9.056;2023-03-13T14:30:20;24.00;1.00
506;DHT22;551;48.524;9.056;2023-03-13T14:32:46;23.80;1.00
506;DHT22;551;48.524;9.056;2023-03-13T14:35:17;23.80;1.00
506;DHT22;551;48.524;9.056;2023-03-13T14:37:49;23.70;1.00
506;DHT22;551;48.524;9.056;2023-03-13T14:40:36;23.70;1.00
506;DHT22;551;48.524;9.056;2023-03-13T14:43:03;23.80;1.00
506;DHT22;551;48.524;9.056;2023-03-13T14:45:34;23.80;1.00
506;DHT22;551;48.524;9.056;2023-03-13T14:48:30;23.90;1.00
506;DHT22;551;48.524;9.056;2023-03-13T14:51:16;24.10;1.00
506;DHT22;551;48.524;9.056;2023-03-13T14:54:23;24.10;1.00
506;DHT22;551;48.524;9.056;2023-03-13T14:57:05;24.00;1.00
506;DHT22;551;48.524;9.056;2023-03-13T14:59:36;23.60;1.00
506;DHT22;551;48.524;9.056;2023-03-13T15:02:27;23.40;1.00
506;DHT22;551;48.524;9.056;2023-03-13T15:07:53;23.10;1.00
506;DHT22;551;48.524;9.056;2023-03-13T15:10:21;23.10;1.00
506;DHT22;551;48.524;9.056;2023-03-13T15:12:51;23.20;1.00
506;DHT22;551;48.524;9.056;2023-03-13T15:15:17;23.00;1.00
506;DHT22;551;48.524;9.056;2023-03-13T15:17:43;23.00;1.00
506;DHT22;551;48.524;9.056;2023-03-13T15:20:13;23.00;1.00
506;DHT22;551;48.524;9.056;2023-03-13T15:22:41;22.80;1.00
506;DHT22;551;48.524;9.056;2023-03-13T15:25:15;22.80;1.00
506;DHT22;551;48.524;9.056;2023-03-13T15:27:41;22.70;1.00
506;DHT22;551;48.524;9.056;2023-03-13T15:30:07;22.80;1.00
506;DHT22;551;48.524;9.056;2023-03-13T15:32:37;22.80;1.00
506;DHT22;551;48.524;9.056;2023-03-13T15:35:28;22.70;1.00
506;DHT22;551;48.524;9.056;2023-03-13T15:37:58;22.70;1.00
506;DHT22;551;48.524;9.056;2023-03-13T15:40:24;22.60;1.00
506;DHT22;551;48.524;9.056;2023-03-13T15:42:52;22.40;1.00
506;DHT22;551;48.524;9.056;2023-03-13T15:45:18;22.30;1.00
506;DHT22;551;48.524;9.056;2023-03-13T15:47:44;22.30;1.00
506;DHT22;551;48.524;9.056;2023-03-13T15:50:16;22.30;1.00
506;DHT22;551;48.524;9.056;2023-03-13T15:52:42;22.20;1.00
506;DHT22;551;48.524;9.056;2023-03-13T15:55:10;22.00;1.00
506;DHT22;551;48.524;9.056;2023-03-13T15:57:43;22.00;1.00
506;DHT22;551;48.524;9.056;2023-03-13T16:00:19;21.90;1.00
506;DHT22;551;48.524;9.056;2023-03-13T16:02:45;21.70;1.00
506;DHT22;551;48.524;9.056;2023-03-13T16:05:11;21.60;1.00
506;DHT22;551;48.524;9.056;2023-03-13T16:07:36;21.60;1.00
506;DHT22;551;48.524;9.056;2023-03-13T16:10:02;21.60;1.00
506;DHT22;551;48.524;9.056;2023-03-13T16:12:28;21.50;1.00
506;DHT22;551;48.524;9.056;2023-03-13T16:14:54;21.50;1.00
506;DHT22;551;48.524;9.056;2023-03-13T16:17:19;21.50;1.00
506;DHT22;551;48.524;9.056;2023-03-13T16:19:46;21.50;1.00
506;DHT22;551;48.524;9.056;2023-03-13T16:22:13;21.60;1.00
506;DHT22;551;48.524;9.056;2023-03-13T16:24:39;21.60;1.00
506;DHT22;551;48.524;9.056;2023-03-13T16:27:18;21.50;1.00
506;DHT22;551;48.524;9.056;2023-03-13T16:29:45;21.50;1.00
506;DHT22;551;48.524;9.056;2023-03-13T16:32:14;21.40;1.00
506;DHT22;551;48.524;9.056;2023-03-13T16:34:39;21.30;1.00
506;DHT22;551;48.524;9.056;2023-03-13T16:37:13;21.20;1.00
506;DHT22;551;48.524;9.056;2023-03-13T16:39:39;21.10;1.00
506;DHT22;551;48.524;9.056;2023-03-13T16:42:04;21.10;1.00
506;DHT22;551;48.524;9.056;2023-03-13T16:44:30;20.90;1.00
506;DHT22;551;48.524;9.056;2023-03-13T16:46:55;20.80;1.00
506;DHT22;551;48.524;9.056;2023-03-13T16:49:21;20.70;1.00
506;DHT22;551;48.524;9.056;2023-03-13T16:51:46;20.70;1.00
506;DHT22;551;48.524;9.056;2023-03-13T16:54:12;20.60;1.00
506;DHT22;551;48.524;9.056;2023-03-13T16:56:40;20.50;1.00
506;DHT22;551;48.524;9.056;2023-03-13T16:59:12;20.30;1.00
506;DHT22;551;48.524;9.056;2023-03-13T17:01:38;20.30;1.00
506;DHT22;551;48.524;9.056;2023-03-13T17:04:03;20.20;1.00
506;DHT22;551;48.524;9.056;2023-03-13T17:06:37;20.10;1.00
506;DHT22;551;48.524;9.056;2023-03-13T17:09:09;20.10;1.00
506;DHT22;551;48.524;9.056;2023-03-13T17:11:35;20.00;1.00
506;DHT22;551;48.524;9.056;2023-03-13T17:14:01;19.90;1.00
506;DHT22;551;48.524;9.056;2023-03-13T17:16:30;19.80;1.00
506;DHT22;551;48.524;9.056;2023-03-13T17:18:57;19.80;1.00
506;DHT22;551;48.524;9.056;2023-03-13T17:21:25;19.70;1.00
506;DHT22;551;48.524;9.056;2023-03-13T17:23:52;19.60;1.00
506;DHT22;551;48.524;9.056;2023-03-13T17:26:26;19.50;1.00
506;DHT22;551;48.524;9.056;2023-03-13T17:28:54;19.40;1.00
506;DHT22;551;48.524;9.056;2023-03-13T17:31:21;19.30;1.00
506;DHT22;551;48.524;9.056;2023-03-13T17:33:47;19.20;1.00
506;DHT22;551;48.524;9.056;2023-03-13T17:36:14;19.20;1.00
506;DHT22;551;48.524;9.056;2023-03-13T17:38:39;19.10;1.00
506;DHT22;551;48.524;9.056;2023-03-13T17:41:07;19.00;1.00
506;DHT22;551;48.524;9.056;2023-03-13T17:43:33;18.90;1.00
506;DHT22;551;48.524;9.056;2023-03-13T17:45:59;18.70;1.00
506;DHT22;551;48.524;9.056;2023-03-13T17:48:25;18.70;1.00
506;DHT22;551;48.524;9.056;2023-03-13T17:50:52;18.60;1.00
506;DHT22;551;48.524;9.056;2023-03-13T17:53:18;18.50;1.00
506;DHT22;551;48.524;9.056;2023-03-13T17:55:44;18.40;1.00
506;DHT22;551;48.524;9.056;2023-03-13T17:58:10;18.30;1.00
506;DHT22;551;48.524;9.056;2023-03-13T18:00:36;18.20;1.00
506;DHT22;551;48.524;9.056;2023-03-13T18:03:02;18.00;1.00
506;DHT22;551;48.524;9.056;2023-03-13T18:05:27;17.90;1.00
506;DHT22;551;48.524;9.056;2023-03-13T18:07:56;17.80;1.00
506;DHT22;551;48.524;9.056;2023-03-13T18:10:26;17.70;1.00
506;DHT22;551;48.524;9.056;2023-03-13T18:12:52;17.60;1.00
506;DHT22;551;48.524;9.056;2023-03-13T18:15:19;17.60;1.00
506;DHT22;551;48.524;9.056;2023-03-13T18:17:45;17.50;1.00
506;DHT22;551;48.524;9.056;2023-03-13T18:20:23;17.40;1.00
506;DHT22;551;48.524;9.056;2023-03-13T18:22:49;17.20;1.00
506;DHT22;551;48.524;9.056;2023-03-13T18:25:14;17.20;1.00
506;DHT22;551;48.524;9.056;2023-03-13T18:27:40;17.20;1.00
506;DHT22;551;48.524;9.056;2023-03-13T18:30:13;17.10;1.00
506;DHT22;551;48.524;9.056;2023-03-13T18:32:39;17.00;1.00
506;DHT22;551;48.524;9.056;2023-03-13T18:35:05;17.10;1.00